createdAt,value
2022-08-27T00:01:25.255Z,101780.88
2022-08-27T00:03:55.067Z,101786.16
2022-08-27T00:06:24.378Z,101782.63
2022-08-27T00:08:52.981Z,101783.50
2022-08-27T00:11:22.386Z,101777.34
2022-08-27T00:13:50.342Z,101784.28
2022-08-27T00:16:18.825Z,101781.69
2022-08-27T00:18:48.357Z,101771.13
2022-08-27T00:21:17.169Z,101761.56
2022-08-27T00:23:45.398Z,101763.25
2022-08-27T00:26:13.156Z,101771.09
2022-08-27T00:28:41.661Z,101769.34
2022-08-27T00:31:12.116Z,101756.97
2022-08-27T00:33:40.466Z,101750.88
2022-08-27T00:36:08.728Z,101759.66
2022-08-27T00:38:38.444Z,101757.75
2022-08-27T00:41:08.697Z,101757.75
2022-08-27T00:43:50.400Z,101756.00
2022-08-27T00:46:37.848Z,101757.75
2022-08-27T00:49:23.978Z,101759.47
2022-08-27T00:51:59.074Z,101754.19
2022-08-27T00:54:28.118Z,101753.31
2022-08-27T00:56:56.349Z,101757.69
2022-08-27T00:59:29.162Z,101767.34
2022-08-27T01:02:14.209Z,101763.84
2022-08-27T01:04:44.275Z,101769.97
2022-08-27T01:07:12.227Z,101756.88
2022-08-27T01:09:40.774Z,101763.06
2022-08-27T01:12:09.129Z,101757.78
2022-08-27T01:14:37.262Z,101768.31
2022-08-27T01:17:07.475Z,101759.56
2022-08-27T01:19:46.772Z,101770.09
2022-08-27T01:22:37.097Z,101764.88
2022-08-27T01:25:09.019Z,101771.09
2022-08-27T01:27:37.794Z,101762.50
2022-08-27T01:30:07.610Z,101770.44
2022-08-27T01:32:36.642Z,101768.91
2022-08-27T01:35:09.575Z,101767.28
2022-08-27T01:37:37.908Z,101760.41
2022-08-27T01:40:08.430Z,101769.28
2022-08-27T01:42:39.861Z,101770.25
2022-08-27T01:45:12.693Z,101776.44
2022-08-27T01:47:40.571Z,101771.22
2022-08-27T01:50:16.457Z,101767.84
2022-08-27T01:52:44.805Z,101766.16
2022-08-27T01:55:15.879Z,101763.66
2022-08-27T01:57:44.574Z,101763.69
2022-08-27T02:00:16.893Z,101754.19
2022-08-27T02:02:44.947Z,101761.28
2022-08-27T02:05:13.445Z,101745.59
2022-08-27T02:07:41.906Z,101763.16
2022-08-27T02:10:12.057Z,101758.00
2022-08-27T02:12:39.631Z,101750.16
2022-08-27T02:15:07.926Z,101747.69
2022-08-27T02:17:35.489Z,101747.69
2022-08-27T02:20:03.211Z,101743.34
2022-08-27T02:22:30.675Z,101757.41
2022-08-27T02:24:58.329Z,101733.97
2022-08-27T02:27:26.015Z,101750.50
2022-08-27T02:29:54.494Z,101750.50
2022-08-27T02:32:26.960Z,101747.91
2022-08-27T02:35:00.490Z,101742.75
2022-08-27T02:37:29.127Z,101742.78
2022-08-27T02:39:57.084Z,101737.59
2022-08-27T02:42:24.626Z,101745.56
2022-08-27T02:44:52.151Z,101747.34
2022-08-27T02:47:19.652Z,101748.28
2022-08-27T02:49:47.255Z,101757.94
2022-08-27T02:52:14.742Z,101755.38
2022-08-27T02:54:43.335Z,101751.03
2022-08-27T02:57:10.957Z,101741.50
2022-08-27T02:59:38.422Z,101745.88
2022-08-27T03:02:06.058Z,101743.31
2022-08-27T03:04:33.839Z,101740.72
2022-08-27T03:07:01.368Z,101740.75
2022-08-27T03:09:28.995Z,101737.25
2022-08-27T03:11:56.766Z,101746.91
2022-08-27T03:14:24.258Z,101736.44
2022-08-27T03:16:51.817Z,101738.16
2022-08-27T03:19:23.801Z,101740.84
2022-08-27T03:21:54.290Z,101731.22
2022-08-27T03:24:22.462Z,101736.53
2022-08-27T03:26:52.755Z,101738.28
2022-08-27T03:29:21.541Z,101732.22
2022-08-27T03:31:49.025Z,101734.88
2022-08-27T03:34:19.840Z,101734.03
2022-08-27T03:36:48.737Z,101740.16
2022-08-27T03:39:16.227Z,101735.00
2022-08-27T03:41:54.684Z,101740.25
2022-08-27T03:44:26.311Z,101738.53
2022-08-27T03:46:53.985Z,101737.66
2022-08-27T03:49:22.982Z,101740.31
2022-08-27T03:51:52.685Z,101742.09
2022-08-27T03:54:20.291Z,101729.91
2022-08-27T03:56:47.867Z,101743.03
2022-08-27T03:59:16.124Z,101741.31
2022-08-27T04:01:45.498Z,101747.47
2022-08-27T04:04:14.011Z,101738.72
2022-08-27T04:06:42.026Z,101737.91
2022-08-27T04:09:09.538Z,101742.25
2022-08-27T04:11:37.402Z,101752.81
2022-08-27T04:14:22.634Z,101744.94
2022-08-27T04:16:55.872Z,101754.56
2022-08-27T04:19:27.335Z,101745.03
2022-08-27T04:21:58.885Z,101748.53
2022-08-27T04:24:26.409Z,101752.06
2022-08-27T04:26:53.939Z,101757.31
2022-08-27T04:29:21.429Z,101749.53
2022-08-27T04:31:49.346Z,101751.28
2022-08-27T04:34:18.715Z,101756.50
2022-08-27T04:36:47.100Z,101749.53
2022-08-27T04:39:15.864Z,101754.78
2022-08-27T04:41:43.856Z,101752.19
2022-08-27T04:44:12.390Z,101753.97
2022-08-27T04:46:41.627Z,101746.13
2022-08-27T04:49:16.689Z,101747.88
2022-08-27T04:51:44.440Z,101740.91
2022-08-27T04:54:13.181Z,101758.34
2022-08-27T04:56:41.700Z,101755.78
2022-08-27T04:59:11.012Z,101761.03
2022-08-27T05:01:40.435Z,101758.41
2022-08-27T05:04:08.974Z,101755.78
2022-08-27T05:06:37.331Z,101755.75
2022-08-27T05:09:05.823Z,101763.59
2022-08-27T05:11:34.688Z,101766.19
2022-08-27T05:14:07.101Z,101767.03
2022-08-27T05:16:36.320Z,101768.78
2022-08-27T05:19:08.588Z,101771.34
2022-08-27T05:21:38.536Z,101766.06
2022-08-27T05:24:08.628Z,101767.75
2022-08-27T05:26:37.804Z,101774.69
2022-08-27T05:29:06.317Z,101761.53
2022-08-27T05:31:34.773Z,101777.16
2022-08-27T05:34:02.897Z,101772.75
2022-08-27T05:36:38.317Z,101771.72
2022-08-27T05:39:15.614Z,101770.78
2022-08-27T05:41:43.170Z,101776.72
2022-08-27T05:44:39.184Z,101773.13
2022-08-27T05:46:58.756Z,101769.44
2022-08-27T05:49:26.324Z,101773.75
2022-08-27T05:51:53.843Z,101770.97
2022-08-27T05:54:21.348Z,101773.50
2022-08-27T05:56:50.298Z,101772.47
2022-08-27T05:59:36.640Z,101768.88
2022-08-27T06:02:06.003Z,101767.91
2022-08-27T06:04:33.744Z,101767.81
2022-08-27T06:07:01.385Z,101766.84
2022-08-27T06:09:30.333Z,101769.38
2022-08-27T06:12:00.382Z,101767.50
2022-08-27T06:14:29.034Z,101768.28
2022-08-27T06:16:56.777Z,101764.72
2022-08-27T06:19:25.035Z,101768.22
2022-08-27T06:22:00.222Z,101771.69
2022-08-27T06:24:37.071Z,101771.63
2022-08-27T06:27:04.642Z,101774.19
2022-08-27T06:29:35.148Z,101764.47
2022-08-27T06:32:02.879Z,101768.00
2022-08-27T06:34:30.729Z,101771.53
2022-08-27T06:36:58.391Z,101769.72
2022-08-27T06:39:26.250Z,101767.88
2022-08-27T06:41:53.817Z,101770.41
2022-08-27T06:44:22.095Z,101778.22
2022-08-27T06:46:49.608Z,101777.25
2022-08-27T06:49:17.315Z,101777.06
2022-08-27T06:51:47.766Z,101770.81
2022-08-27T06:54:17.280Z,101767.16
2022-08-27T06:56:45.437Z,101768.81
2022-08-27T06:59:16.474Z,101769.66
2022-08-27T07:01:47.110Z,101766.03
2022-08-27T07:04:20.339Z,101778.00
2022-08-27T07:06:48.154Z,101769.94
2022-08-27T07:09:16.383Z,101772.28
2022-08-27T07:11:44.597Z,101773.09
2022-08-27T07:14:12.109Z,101774.66
2022-08-27T07:16:40.987Z,101771.88
2022-08-27T07:19:08.637Z,101765.81
2022-08-27T07:21:40.935Z,101772.88
2022-08-27T07:24:09.215Z,101768.13
2022-08-27T07:26:40.650Z,101771.91
2022-08-27T07:29:10.730Z,101771.91
2022-08-27T07:31:38.758Z,101770.31
2022-08-27T07:34:07.475Z,101767.59
2022-08-27T07:36:36.127Z,101774.25
2022-08-27T07:39:04.158Z,101775.66
2022-08-27T07:41:32.960Z,101771.63
2022-08-27T07:44:18.769Z,101778.06
2022-08-27T07:46:48.639Z,101776.81
2022-08-27T07:49:18.028Z,101783.56
2022-08-27T07:51:46.342Z,101778.69
2022-08-27T07:54:14.021Z,101794.44
2022-08-27T07:56:42.348Z,101796.69
2022-08-27T07:59:11.786Z,101791.97
2022-08-27T08:01:42.144Z,101786.38
2022-08-27T08:04:10.560Z,101792.47
2022-08-27T08:06:40.776Z,101790.81
2022-08-27T08:09:10.610Z,101795.09
2022-08-27T08:11:39.353Z,101796.06
2022-08-27T08:14:06.814Z,101797.50
2022-08-27T08:16:34.417Z,101806.81
2022-08-27T08:19:01.971Z,101803.84
2022-08-27T08:21:29.485Z,101809.50
2022-08-27T08:23:57.038Z,101804.22
2022-08-27T08:26:24.931Z,101815.59
2022-08-27T08:28:52.443Z,101811.56
2022-08-27T08:31:20.140Z,101814.19
2022-08-27T08:33:48.687Z,101821.84
2022-08-27T08:36:17.691Z,101818.31
2022-08-27T08:38:47.294Z,101821.47
2022-08-27T08:41:47.390Z,101824.75
2022-08-27T08:44:34.013Z,101822.97
2022-08-27T08:47:14.170Z,101828.38
2022-08-27T08:50:22.804Z,101824.78
2022-08-27T08:53:25.585Z,101827.19
2022-08-27T08:55:58.753Z,101832.50
2022-08-27T08:58:47.172Z,101833.66
2022-08-27T09:01:18.607Z,101830.88
2022-08-27T09:03:53.836Z,101831.59
2022-08-27T09:06:35.134Z,101826.25
2022-08-27T09:09:15.151Z,101790.31
2022-08-27T09:11:56.226Z,101816.03
2022-08-27T09:14:32.604Z,101825.25
2022-08-27T09:17:02.142Z,101827.63
2022-08-27T09:19:30.264Z,101818.13
2022-08-27T09:22:38.345Z,101828.22
2022-08-27T09:25:17.882Z,101823.56
2022-08-27T09:27:50.478Z,101829.19
2022-08-27T09:30:28.592Z,101824.22
2022-08-27T09:33:01.301Z,101822.94
2022-08-27T09:35:35.659Z,101824.53
2022-08-27T09:38:04.514Z,101836.53
2022-08-27T09:40:40.002Z,101833.88
2022-08-27T09:43:21.977Z,101831.66
2022-08-27T09:46:00.943Z,101828.41
2022-08-27T09:48:34.193Z,101829.53
2022-08-27T09:51:15.010Z,101824.44
2022-08-27T09:53:51.633Z,101829.19
2022-08-27T09:56:27.808Z,101824.00
2022-08-27T09:59:07.949Z,101831.00
2022-08-27T10:01:39.146Z,101824.34
2022-08-27T10:04:13.223Z,101821.19
2022-08-27T10:06:48.042Z,101818.41
2022-08-27T10:09:44.106Z,101818.41
2022-08-27T10:12:29.306Z,101808.91
2022-08-27T10:15:01.132Z,101814.59
2022-08-27T10:17:47.521Z,101813.19
2022-08-27T10:20:30.558Z,101810.31
2022-08-27T10:23:13.601Z,101808.78
2022-08-27T10:26:15.758Z,101812.28
2022-08-27T10:28:46.031Z,101813.50
2022-08-27T10:31:25.186Z,101820.38
2022-08-27T10:33:59.575Z,101815.13
2022-08-27T10:36:35.753Z,101812.88
2022-08-27T10:39:46.949Z,101820.25
2022-08-27T10:42:46.513Z,101814.13
2022-08-27T10:45:30.579Z,101823.09
2022-08-27T10:48:03.054Z,101810.66
2022-08-27T10:51:01.910Z,101812.09
2022-08-27T10:53:55.599Z,101814.84
2022-08-27T10:56:34.034Z,101811.59
2022-08-27T10:59:33.324Z,101813.72
2022-08-27T11:02:20.798Z,101816.03
2022-08-27T11:04:54.538Z,101812.03
2022-08-27T11:07:31.672Z,101813.75
2022-08-27T11:10:18.483Z,101813.59
2022-08-27T11:12:51.417Z,101821.69
2022-08-27T11:15:24.186Z,101808.44
2022-08-27T11:17:57.851Z,101816.06
2022-08-27T11:20:28.413Z,101812.06
2022-08-27T11:23:10.041Z,101817.19
2022-08-27T11:25:54.766Z,101815.72
2022-08-27T11:28:39.722Z,101819.31
2022-08-27T11:31:38.192Z,101815.63
2022-08-27T11:34:31.808Z,101808.25
2022-08-27T11:37:30.545Z,101810.53
2022-08-27T11:40:22.890Z,101805.38
2022-08-27T11:42:54.392Z,101805.81
2022-08-27T11:45:38.450Z,101797.75
2022-08-27T11:48:24.655Z,101804.03
2022-08-27T11:51:04.320Z,101800.19
2022-08-27T11:53:35.160Z,101803.53
2022-08-27T11:56:40.268Z,101796.13
2022-08-27T11:59:29.386Z,101800.13
2022-08-27T12:02:20.258Z,101801.06
2022-08-27T12:04:49.625Z,101800.56
2022-08-27T12:07:17.504Z,101797.09
2022-08-27T12:09:57.735Z,101796.09
2022-08-27T12:12:43.711Z,101802.75
2022-08-27T12:15:11.181Z,101791.19
2022-08-27T12:17:48.895Z,101798.47
2022-08-27T12:21:10.786Z,101791.66
2022-08-27T12:23:56.309Z,101785.56
2022-08-27T12:26:26.583Z,101789.63
2022-08-27T12:29:29.595Z,101783.47
2022-08-27T12:32:06.436Z,101769.56
2022-08-27T12:34:44.947Z,101782.28
2022-08-27T12:37:13.197Z,101772.50
2022-08-27T12:39:49.291Z,101784.34
2022-08-27T12:42:24.322Z,101785.06
2022-08-27T12:44:57.053Z,101780.09
2022-08-27T12:47:25.334Z,101784.63
2022-08-27T12:49:58.054Z,101776.91
2022-08-27T12:52:43.679Z,101775.31
2022-08-27T12:55:38.954Z,101781.59
2022-08-27T12:58:33.473Z,101778.81
2022-08-27T13:01:07.097Z,101774.78
2022-08-27T13:03:46.238Z,101776.09
2022-08-27T13:06:23.061Z,101778.56
2022-08-27T13:08:59.254Z,101779.31
2022-08-27T13:11:33.518Z,101768.59
2022-08-27T13:14:17.689Z,101765.66
2022-08-27T13:17:09.768Z,101767.34
2022-08-27T13:19:38.665Z,101767.66
2022-08-27T13:22:07.152Z,101767.56
2022-08-27T13:24:55.909Z,101769.13
2022-08-27T13:27:32.726Z,101767.13
2022-08-27T13:30:30.888Z,101773.84
2022-08-27T13:33:06.165Z,101775.53
2022-08-27T13:35:33.813Z,101773.31
2022-08-27T13:38:03.379Z,101770.69
2022-08-27T13:40:37.593Z,101775.88
2022-08-27T13:43:09.097Z,101772.88
2022-08-27T13:45:42.487Z,101778.47
2022-08-27T13:48:13.403Z,101778.03
2022-08-27T13:50:51.943Z,101768.94
2022-08-27T13:53:51.123Z,101772.94
2022-08-27T13:56:34.097Z,101776.47
2022-08-27T13:59:16.236Z,101771.69
2022-08-27T14:01:54.731Z,101779.59
2022-08-27T14:04:26.169Z,101775.72
2022-08-27T14:06:54.739Z,101765.72
2022-08-27T14:09:30.323Z,101771.47
2022-08-27T14:12:03.383Z,101770.31
2022-08-27T14:14:37.069Z,101775.31
2022-08-27T14:17:05.537Z,101769.47
2022-08-27T14:19:36.718Z,101770.81
2022-08-27T14:22:05.019Z,101769.59
2022-08-27T14:24:32.528Z,101764.59
2022-08-27T14:27:11.246Z,101771.06
2022-08-27T14:29:38.885Z,101773.41
2022-08-27T14:32:07.341Z,101772.00
2022-08-27T14:34:36.079Z,101790.81
2022-08-27T14:37:03.910Z,101774.81
2022-08-27T14:39:31.905Z,101776.13
2022-08-27T14:41:59.804Z,101779.97
2022-08-27T14:44:27.466Z,101782.31
2022-08-27T14:46:56.394Z,101782.88
2022-08-27T14:49:31.852Z,101785.25
2022-08-27T14:51:59.592Z,101788.00
2022-08-27T14:54:30.532Z,101781.91
2022-08-27T14:57:02.300Z,101781.03
2022-08-27T14:59:30.351Z,101787.91
2022-08-27T15:02:00.162Z,101790.91
2022-08-27T15:04:29.085Z,101788.06
2022-08-27T15:06:56.950Z,101784.69
2022-08-27T15:09:24.786Z,101777.72
2022-08-27T15:11:53.699Z,101785.44
2022-08-27T15:14:26.330Z,101796.53
2022-08-27T15:16:54.855Z,101798.63
2022-08-27T15:19:24.348Z,101796.41
2022-08-27T15:21:53.042Z,101801.22
2022-08-27T15:24:24.480Z,101805.81
2022-08-27T15:26:53.989Z,101804.47
2022-08-27T15:29:21.679Z,101785.56
2022-08-27T15:31:49.329Z,101802.31
2022-08-27T15:34:17.372Z,101801.34
2022-08-27T15:36:45.090Z,101799.84
2022-08-27T15:39:12.843Z,101795.28
2022-08-27T15:42:06.251Z,101801.66
2022-08-27T15:44:30.026Z,101796.13
2022-08-27T15:46:57.683Z,101801.41
2022-08-27T15:49:25.367Z,101796.47
2022-08-27T15:51:53.240Z,101798.47
2022-08-27T15:54:21.871Z,101803.28
2022-08-27T15:56:49.403Z,101799.50
2022-08-27T15:59:17.057Z,101806.13
2022-08-27T16:01:44.838Z,101801.56
2022-08-27T16:04:16.654Z,101797.69
2022-08-27T16:06:44.651Z,101807.25
2022-08-27T16:09:12.265Z,101799.94
2022-08-27T16:11:40.891Z,101808.47
2022-08-27T16:14:10.619Z,101807.25
2022-08-27T16:16:39.339Z,101809.59
2022-08-27T16:19:08.601Z,101806.34
2022-08-27T16:21:36.671Z,101793.63
2022-08-27T16:24:07.657Z,101804.63
2022-08-27T16:26:35.385Z,101804.84
2022-08-27T16:29:03.711Z,101805.13
2022-08-27T16:31:32.858Z,101809.19
2022-08-27T16:34:01.297Z,101807.22
2022-08-27T16:36:30.449Z,101801.88
2022-08-27T16:38:58.277Z,101802.22
2022-08-27T16:41:25.787Z,101813.88
2022-08-27T16:43:53.411Z,101806.47
2022-08-27T16:46:20.998Z,101804.22
2022-08-27T16:49:06.935Z,101815.09
2022-08-27T16:51:37.559Z,101805.75
2022-08-27T16:54:07.895Z,101808.34
2022-08-27T16:56:37.861Z,101797.69
2022-08-27T16:59:06.188Z,101811.34
2022-08-27T17:01:34.236Z,101809.78
2022-08-27T17:04:10.179Z,101809.09
2022-08-27T17:06:42.405Z,101806.59
2022-08-27T17:09:10.846Z,101806.41
2022-08-27T17:11:41.875Z,101808.22
2022-08-27T17:14:12.181Z,101805.47
2022-08-27T17:16:43.330Z,101815.59
2022-08-27T17:19:16.748Z,101811.69
2022-08-27T17:21:45.618Z,101819.06
2022-08-27T17:24:13.819Z,101817.44
2022-08-27T17:26:41.411Z,101815.78
2022-08-27T17:29:08.939Z,101814.03
2022-08-27T17:31:39.086Z,101821.06
2022-08-27T17:34:08.217Z,101820.78
2022-08-27T17:36:36.043Z,101810.56
2022-08-27T17:39:04.750Z,101804.88
2022-08-27T17:41:36.610Z,101817.53
2022-08-27T17:44:11.850Z,101816.13
2022-08-27T17:46:39.451Z,101814.25
2022-08-27T17:49:06.957Z,101815.22
2022-08-27T17:51:35.986Z,101815.19
2022-08-27T17:54:05.972Z,101812.00
2022-08-27T17:56:34.453Z,101802.28
2022-08-27T17:59:01.940Z,101810.28
2022-08-27T18:01:33.125Z,101815.94
2022-08-27T18:04:01.268Z,101822.66
2022-08-27T18:06:29.404Z,101821.94
2022-08-27T18:08:58.299Z,101819.03
2022-08-27T18:11:27.304Z,101826.94
2022-08-27T18:14:04.572Z,101834.00
2022-08-27T18:16:32.817Z,101832.44
2022-08-27T18:19:00.437Z,101847.75
2022-08-27T18:21:31.499Z,101839.09
2022-08-27T18:23:59.065Z,101850.66
2022-08-27T18:26:29.843Z,101840.25
2022-08-27T18:28:58.086Z,101847.22
2022-08-27T18:31:31.113Z,101851.91
2022-08-27T18:34:00.136Z,101851.19
2022-08-27T18:36:28.880Z,101853.19
2022-08-27T18:38:56.733Z,101854.97
2022-08-27T18:41:26.416Z,101856.00
2022-08-27T18:43:54.046Z,101871.03
2022-08-27T18:46:21.818Z,101867.75
2022-08-27T18:48:49.457Z,101868.69
2022-08-27T18:51:17.901Z,101876.91
2022-08-27T18:53:46.425Z,101875.13
2022-08-27T18:56:16.624Z,101874.44
2022-08-27T18:58:44.774Z,101869.25
2022-08-27T19:01:17.869Z,101876.31
2022-08-27T19:03:51.614Z,101882.53
2022-08-27T19:06:21.355Z,101879.88
2022-08-27T19:08:50.347Z,101881.78
2022-08-27T19:11:18.290Z,101890.59
2022-08-27T19:13:46.229Z,101888.00
2022-08-27T19:16:26.333Z,101897.75
2022-08-27T19:18:53.888Z,101900.50
2022-08-27T19:21:21.405Z,101899.75
2022-08-27T19:23:51.333Z,101892.81
2022-08-27T19:26:22.173Z,101898.13
2022-08-27T19:28:49.774Z,101903.47
2022-08-27T19:31:17.649Z,101901.00
2022-08-27T19:33:46.359Z,101906.19
2022-08-27T19:36:17.166Z,101914.19
2022-08-27T19:38:46.427Z,101907.13
2022-08-27T19:41:14.298Z,101919.47
2022-08-27T19:43:44.778Z,101919.56
2022-08-27T19:46:14.868Z,101926.56
2022-08-27T19:48:42.382Z,101914.69
2022-08-27T19:51:10.119Z,101931.97
2022-08-27T19:53:38.174Z,101932.03
2022-08-27T19:56:08.287Z,101933.88
2022-08-27T19:58:35.940Z,101936.53
2022-08-27T20:01:03.525Z,101943.59
2022-08-27T20:03:31.089Z,101935.75
2022-08-27T20:05:59.626Z,101916.75
2022-08-27T20:08:27.260Z,101937.69
2022-08-27T20:10:54.834Z,101929.00
2022-08-27T20:13:22.373Z,101942.19
2022-08-27T20:15:51.537Z,101942.28
2022-08-27T20:18:20.019Z,101929.25
2022-08-27T20:20:47.573Z,101941.53
2022-08-27T20:23:15.673Z,101936.31
2022-08-27T20:25:44.702Z,101936.44
2022-08-27T20:28:37.684Z,101944.34
2022-08-27T20:31:00.090Z,101945.34
2022-08-27T20:33:27.938Z,101939.19
2022-08-27T20:35:57.782Z,101943.63
2022-08-27T20:38:26.128Z,101948.09
2022-08-27T20:40:53.644Z,101949.84
2022-08-27T20:43:22.724Z,101949.94
2022-08-27T20:45:50.506Z,101947.38
2022-08-27T20:48:18.893Z,101946.53
2022-08-27T20:50:46.491Z,101954.44
2022-08-27T20:53:14.013Z,101952.75
2022-08-27T20:55:41.798Z,101947.63
2022-08-27T20:58:26.862Z,101958.97
2022-08-27T21:00:55.663Z,101962.53
2022-08-27T21:03:23.810Z,101967.72
2022-08-27T21:05:51.636Z,101961.69
2022-08-27T21:08:21.737Z,101959.09
2022-08-27T21:10:52.557Z,101960.88
2022-08-27T21:13:21.424Z,101970.53
2022-08-27T21:15:49.843Z,101967.03
2022-08-27T21:18:22.266Z,101972.34
2022-08-27T21:20:57.525Z,101973.28
2022-08-27T21:23:26.768Z,101960.19
2022-08-27T21:25:55.509Z,101961.94
2022-08-27T21:28:22.984Z,101962.84
2022-08-27T21:30:50.523Z,101974.25
2022-08-27T21:33:17.993Z,101971.63
2022-08-27T21:35:45.510Z,101969.88
2022-08-27T21:38:13.132Z,101973.41
2022-08-27T21:40:40.825Z,101976.94
2022-08-27T21:43:08.368Z,101974.34
2022-08-27T21:45:39.167Z,101981.38
2022-08-27T21:48:06.657Z,101957.81
2022-08-27T21:50:34.158Z,101975.28
2022-08-27T21:53:01.792Z,101970.06
2022-08-27T21:55:29.321Z,101969.19
2022-08-27T21:57:56.879Z,101965.75
2022-08-27T22:00:28.054Z,101970.09
2022-08-27T22:02:56.548Z,101975.34
2022-08-27T22:05:24.657Z,101973.63
2022-08-27T22:07:52.338Z,101973.63
2022-08-27T22:10:20.141Z,101981.53
2022-08-27T22:12:47.626Z,101971.09
2022-08-27T22:15:15.213Z,101985.94
2022-08-27T22:17:42.824Z,101985.97
2022-08-27T22:20:11.006Z,101987.72
2022-08-27T22:22:40.093Z,101985.13
2022-08-27T22:25:08.359Z,101989.47
2022-08-27T22:27:36.173Z,101990.38
2022-08-27T22:30:05.745Z,101985.16
2022-08-27T22:32:36.027Z,101993.88
2022-08-27T22:35:03.558Z,101984.31
2022-08-27T22:37:31.090Z,101983.47
2022-08-27T22:39:58.733Z,101986.97
2022-08-27T22:42:27.131Z,101986.97
2022-08-27T22:44:55.097Z,101990.44
2022-08-27T22:47:22.658Z,101991.34
2022-08-27T22:49:52.930Z,101987.00
2022-08-27T22:52:20.724Z,101992.22
2022-08-27T22:54:54.774Z,101990.50
2022-08-27T22:57:22.690Z,101994.84
2022-08-27T22:59:50.352Z,101991.38
2022-08-27T23:02:18.669Z,101997.50
2022-08-27T23:04:54.928Z,101999.25
2022-08-27T23:07:23.548Z,101994.03
2022-08-27T23:09:51.127Z,102006.25
2022-08-27T23:12:19.866Z,102001.91
2022-08-27T23:14:47.499Z,102009.75
2022-08-27T23:17:16.055Z,102005.41
2022-08-27T23:19:44.302Z,102012.41
2022-08-27T23:22:12.413Z,102008.91
2022-08-27T23:25:00.384Z,102015.88
2022-08-27T23:27:30.279Z,102002.81
2022-08-27T23:30:00.406Z,102009.78
2022-08-27T23:32:28.817Z,102016.78
2022-08-27T23:34:56.950Z,102010.66
2022-08-27T23:37:25.171Z,102000.19
2022-08-27T23:39:52.879Z,102008.94
2022-08-27T23:42:20.685Z,102013.31
2022-08-27T23:44:49.450Z,102001.97
2022-08-27T23:47:17.642Z,102015.03
2022-08-27T23:49:45.216Z,102013.31
2022-08-27T23:52:14.047Z,102013.31
2022-08-27T23:54:41.973Z,102006.34
2022-08-27T23:57:09.461Z,102014.19
2022-08-27T23:59:36.982Z,102019.41
